LGX33M LIEE-LIRF
Flight info
| Callsign | LGX33M |
|---|---|
| Flight time | N/A |
| Altitude | 28000 |
| Route | KOVAS5K/14 KOVAS Q125 DEXUL DCT ABIDU DCT TINTO DCT VALMA |
| Aircraft | B38M/M-SDE1FGHILORVWXY/HB1 |
Departure
| Time | 2026-04-28 21:06 |
|---|---|
| Airport | Cagliari Elmas Airport (LIEE) |
Arrival
| Time | N/A |
|---|---|
| Airport | Rome–Fiumicino Leonardo da Vinci International Airport (LIRF) |
| Time | Latitude | Longitude | Altitude | Speed | Heading |
|---|---|---|---|---|---|
| 2026-04-28 20:42 | 39.25235 | 9.05947 | 27 ft | 0 kts | 322° |
| 2026-04-28 20:57 | 39.25230 | 9.05953 | 25 ft | 4 kts | 321° |
| 2026-04-28 20:57 | 39.25211 | 9.05972 | 28 ft | 2 kts | 322° |
| 2026-04-28 20:58 | 39.25197 | 9.05994 | 30 ft | 4 kts | 280° |
| 2026-04-28 20:58 | 39.25202 | 9.06021 | 29 ft | 3 kts | 232° |
| 2026-04-28 20:58 | 39.25216 | 9.06044 | 27 ft | 0 kts | 232° |
| 2026-04-28 21:01 | 39.25213 | 9.06040 | 27 ft | 2 kts | 232° |
| 2026-04-28 21:01 | 39.25191 | 9.06003 | 30 ft | 9 kts | 232° |
| 2026-04-28 21:01 | 39.25145 | 9.05912 | 26 ft | 13 kts | 262° |
| 2026-04-28 21:02 | 39.25187 | 9.05840 | 26 ft | 11 kts | 319° |
| 2026-04-28 21:02 | 39.25253 | 9.05763 | 26 ft | 15 kts | 318° |
| 2026-04-28 21:02 | 39.25340 | 9.05662 | 26 ft | 19 kts | 318° |
| 2026-04-28 21:02 | 39.25401 | 9.05499 | 26 ft | 23 kts | 282° |
| 2026-04-28 21:03 | 39.25482 | 9.05313 | 27 ft | 26 kts | 320° |
| 2026-04-28 21:03 | 39.25622 | 9.05150 | 28 ft | 28 kts | 317° |
| 2026-04-28 21:03 | 39.25773 | 9.04976 | 28 ft | 30 kts | 318° |
| 2026-04-28 21:03 | 39.25925 | 9.04801 | 28 ft | 22 kts | 318° |
| 2026-04-28 21:04 | 39.26042 | 9.04664 | 27 ft | 24 kts | 317° |
| 2026-04-28 21:04 | 39.26123 | 9.04491 | 26 ft | 23 kts | 272° |
| 2026-04-28 21:04 | 39.26028 | 9.04411 | 26 ft | 15 kts | 140° |
| 2026-04-28 21:04 | 39.26019 | 9.04420 | 26 ft | 0 kts | 138° |
| 2026-04-28 21:05 | 39.26002 | 9.04440 | 26 ft | 22 kts | 138° |
| 2026-04-28 21:06 | 39.25673 | 9.04827 | 28 ft | 105 kts | 137° |
| 2026-04-28 21:06 | 39.24956 | 9.05667 | 57 ft | 167 kts | 136° |
| 2026-04-28 21:06 | 39.24065 | 9.06716 | 690 ft | 176 kts | 137° |
| 2026-04-28 21:06 | 39.23153 | 9.07750 | 1379 ft | 172 kts | 137° |
| 2026-04-28 21:07 | 39.22248 | 9.08793 | 2195 ft | 183 kts | 137° |
| 2026-04-28 21:07 | 39.21245 | 9.09948 | 2822 ft | 206 kts | 137° |
| 2026-04-28 21:07 | 39.20109 | 9.11250 | 3500 ft | 228 kts | 141° |
| 2026-04-28 21:07 | 39.18672 | 9.12060 | 4574 ft | 227 kts | 175° |
| 2026-04-28 21:08 | 39.17106 | 9.11780 | 5491 ft | 236 kts | 205° |
| 2026-04-28 21:08 | 39.15754 | 9.10492 | 6203 ft | 253 kts | 232° |
| 2026-04-28 21:08 | 39.15052 | 9.08365 | 6906 ft | 270 kts | 265° |
| 2026-04-28 21:08 | 39.15370 | 9.06014 | 7954 ft | 271 kts | 295° |
| 2026-04-28 21:09 | 39.16615 | 9.04175 | 8892 ft | 281 kts | 327° |
| 2026-04-28 21:09 | 39.18489 | 9.03473 | 9905 ft | 288 kts | 359° |
| 2026-04-28 21:09 | 39.20503 | 9.03863 | 10630 ft | 302 kts | 15° |
| 2026-04-28 21:09 | 39.22477 | 9.05032 | 11119 ft | 324 kts | 29° |
| 2026-04-28 21:10 | 39.24476 | 9.06540 | 11658 ft | 340 kts | 29° |
| 2026-04-28 21:10 | 39.26536 | 9.08066 | 12340 ft | 349 kts | 28° |
| 2026-04-28 21:10 | 39.28654 | 9.09621 | 13263 ft | 352 kts | 28° |
| 2026-04-28 21:10 | 39.30805 | 9.11192 | 14055 ft | 358 kts | 28° |
| 2026-04-28 21:11 | 39.32983 | 9.12780 | 14801 ft | 362 kts | 28° |
| 2026-04-28 21:11 | 39.35192 | 9.14389 | 15548 ft | 366 kts | 28° |
| 2026-04-28 21:11 | 39.37420 | 9.16014 | 16279 ft | 370 kts | 28° |
| 2026-04-28 21:11 | 39.39661 | 9.17694 | 16965 ft | 375 kts | 32° |
| 2026-04-28 21:12 | 39.41817 | 9.19630 | 17669 ft | 379 kts | 33° |
| 2026-04-28 21:12 | 39.44005 | 9.21580 | 18352 ft | 384 kts | 32° |
| 2026-04-28 21:12 | 39.46220 | 9.23537 | 18960 ft | 387 kts | 32° |
| 2026-04-28 21:12 | 39.48460 | 9.25505 | 19567 ft | 391 kts | 32° |
| 2026-04-28 21:13 | 39.50721 | 9.27490 | 20158 ft | 394 kts | 32° |
| 2026-04-28 21:13 | 39.52999 | 9.29490 | 20739 ft | 397 kts | 32° |
| 2026-04-28 21:13 | 39.55298 | 9.31510 | 21318 ft | 401 kts | 32° |
| 2026-04-28 21:13 | 39.57616 | 9.33547 | 21879 ft | 404 kts | 31° |
| 2026-04-28 21:14 | 39.59953 | 9.35604 | 22447 ft | 408 kts | 31° |
| 2026-04-28 21:14 | 39.62309 | 9.37679 | 22998 ft | 411 kts | 31° |
| 2026-04-28 21:14 | 39.64686 | 9.39774 | 23532 ft | 415 kts | 31° |
| 2026-04-28 21:14 | 39.67078 | 9.41883 | 24075 ft | 416 kts | 33° |
| 2026-04-28 21:15 | 39.69473 | 9.43999 | 24594 ft | 417 kts | 33° |
| 2026-04-28 21:15 | 39.71881 | 9.46127 | 25026 ft | 421 kts | 32° |
| 2026-04-28 21:15 | 39.74309 | 9.48275 | 25451 ft | 424 kts | 33° |
| 2026-04-28 21:15 | 39.76756 | 9.50441 | 25863 ft | 427 kts | 33° |
| 2026-04-28 21:16 | 39.79220 | 9.52624 | 26291 ft | 430 kts | 33° |
| 2026-04-28 21:16 | 39.81696 | 9.54820 | 26703 ft | 432 kts | 33° |
| 2026-04-28 21:16 | 39.84191 | 9.57033 | 27105 ft | 435 kts | 32° |
| 2026-04-28 21:16 | 39.85852 | 9.58508 | 27388 ft | 437 kts | 33° |
| 2026-04-28 21:17 | 39.88364 | 9.60743 | 27843 ft | 438 kts | 33° |
| 2026-04-28 21:17 | 39.91754 | 9.63759 | 28118 ft | 446 kts | 33° |
| 2026-04-28 21:17 | 39.96017 | 9.67559 | 28093 ft | 445 kts | 33° |
| 2026-04-28 21:18 | 40.01113 | 9.72107 | 28096 ft | 443 kts | 33° |
| 2026-04-28 21:18 | 40.06199 | 9.76655 | 28095 ft | 443 kts | 33° |
| 2026-04-28 21:19 | 40.11264 | 9.81192 | 28088 ft | 440 kts | 34° |
| 2026-04-28 21:19 | 40.16318 | 9.85729 | 28085 ft | 442 kts | 34° |
| 2026-04-28 21:20 | 40.21400 | 9.90298 | 28090 ft | 443 kts | 33° |
| 2026-04-28 21:20 | 40.26482 | 9.94876 | 28087 ft | 443 kts | 33° |
| 2026-04-28 21:21 | 40.31562 | 9.99460 | 28093 ft | 443 kts | 34° |
| 2026-04-28 21:21 | 40.36636 | 10.04048 | 28090 ft | 443 kts | 33° |
| 2026-04-28 21:22 | 40.41709 | 10.08644 | 28084 ft | 443 kts | 34° |
| 2026-04-28 21:22 | 40.46783 | 10.13248 | 28092 ft | 443 kts | 34° |
| 2026-04-28 21:23 | 40.51798 | 10.17808 | 28045 ft | 443 kts | 34° |
| 2026-04-28 21:23 | 40.56934 | 10.22486 | 28068 ft | 457 kts | 34° |
| 2026-04-28 21:24 | 40.62222 | 10.27313 | 28064 ft | 463 kts | 34° |
| 2026-04-28 21:24 | 40.67517 | 10.32156 | 28078 ft | 463 kts | 34° |
| 2026-04-28 21:25 | 40.72802 | 10.36999 | 28068 ft | 463 kts | 34° |
| 2026-04-28 21:25 | 40.78083 | 10.41848 | 28071 ft | 462 kts | 34° |
| 2026-04-28 21:26 | 40.83364 | 10.46705 | 28080 ft | 463 kts | 34° |
| 2026-04-28 21:26 | 40.88643 | 10.51572 | 28073 ft | 462 kts | 34° |
| 2026-04-28 21:27 | 40.93915 | 10.56441 | 28075 ft | 462 kts | 34° |
| 2026-04-28 21:27 | 40.99191 | 10.61324 | 28077 ft | 462 kts | 34° |
| 2026-04-28 21:28 | 41.04456 | 10.66206 | 28069 ft | 459 kts | 34° |
| 2026-04-28 21:28 | 41.09654 | 10.71036 | 28059 ft | 461 kts | 34° |
| 2026-04-28 21:29 | 41.14909 | 10.75928 | 28068 ft | 461 kts | 34° |
| 2026-04-28 21:29 | 41.17509 | 10.78352 | 27892 ft | 451 kts | 34° |
| 2026-04-28 21:29 | 41.20038 | 10.80713 | 27646 ft | 438 kts | 34° |
| 2026-04-28 21:30 | 41.22497 | 10.83009 | 27385 ft | 427 kts | 34° |
| 2026-04-28 21:30 | 41.24905 | 10.85261 | 27132 ft | 417 kts | 34° |
| 2026-04-28 21:30 | 41.27126 | 10.87339 | 26747 ft | 413 kts | 34° |
| 2026-04-28 21:30 | 41.29565 | 10.89624 | 26116 ft | 414 kts | 34° |
| 2026-04-28 21:31 | 41.31893 | 10.91806 | 25643 ft | 411 kts | 34° |
| 2026-04-28 21:31 | 41.34221 | 10.93991 | 25188 ft | 408 kts | 34° |
| 2026-04-28 21:31 | 41.36548 | 10.96177 | 24731 ft | 406 kts | 34° |
| 2026-04-28 21:31 | 41.38576 | 10.98083 | 24332 ft | 404 kts | 34° |
| 2026-04-28 21:32 | 41.40691 | 11.00072 | 23916 ft | 402 kts | 34° |
| 2026-04-28 21:32 | 41.42817 | 11.02075 | 23472 ft | 400 kts | 34° |
| 2026-04-28 21:32 | 41.45036 | 11.04165 | 22987 ft | 398 kts | 34° |
| 2026-04-28 21:32 | 41.47094 | 11.06540 | 22435 ft | 399 kts | 50° |
| 2026-04-28 21:33 | 41.48526 | 11.09697 | 21920 ft | 397 kts | 67° |
| 2026-04-28 21:33 | 41.49504 | 11.13020 | 21544 ft | 383 kts | 68° |
| 2026-04-28 21:33 | 41.50416 | 11.16146 | 21189 ft | 370 kts | 69° |
| 2026-04-28 21:33 | 41.51319 | 11.19293 | 20816 ft | 361 kts | 69° |
| 2026-04-28 21:34 | 41.52211 | 11.22441 | 20431 ft | 366 kts | 69° |
| 2026-04-28 21:34 | 41.53111 | 11.25642 | 20018 ft | 370 kts | 69° |
| 2026-04-28 21:34 | 41.54012 | 11.28852 | 19638 ft | 371 kts | 69° |
| 2026-04-28 21:34 | 41.54889 | 11.31986 | 19262 ft | 370 kts | 69° |
| 2026-04-28 21:35 | 41.55781 | 11.35178 | 18883 ft | 368 kts | 69° |
| 2026-04-28 21:35 | 41.56668 | 11.38356 | 18501 ft | 367 kts | 69° |
| 2026-04-28 21:35 | 41.57557 | 11.41539 | 18073 ft | 365 kts | 69° |
| 2026-04-28 21:35 | 41.58455 | 11.44711 | 17634 ft | 363 kts | 69° |
| 2026-04-28 21:36 | 41.59348 | 11.47867 | 17270 ft | 360 kts | 69° |
| 2026-04-28 21:36 | 41.60200 | 11.50889 | 16909 ft | 357 kts | 69° |
| 2026-04-28 21:36 | 41.61089 | 11.54041 | 16526 ft | 354 kts | 69° |
| 2026-04-28 21:36 | 41.61672 | 11.56112 | 16299 ft | 352 kts | 69° |